Decoded Metar for YPWR (WOOMERA in AUSTRALIA) (IATA:UMR) | Meteo·Mobile Aviation Weather
aviador You're here:

YPWR Decoded Metar

WOOMERA in AUSTRALIA
Report Time2019-02-20 01:30:00
UTC Time2019-02-20 02:02:24
Flight Rules vfr VFR
Wind170° at 08 kt
W.Decomp.*RWY 18: 7.7 kt HW 2.1 kt LCW
RWY 12: 5.7 kt HW 5.7 kt RCW
W.Rank170° ranks 2
Current wind is below 170° avg. (9.9)
Visibility9999 m
Phenomena:N/A
Clouds:N/A
Expected CloudBase > 6,800 ft AGL from Temp-Dew spread
CeilingNone
Temp25°C (ISA +11)
Dew Point08°C (34% RH)
AAT21.7°C
QNH1018 hPa
Density Alt1,811 ft
Elevation548 ft
Report Wrong Elevation
Raw Report
METAR YPWR 200130Z AUTO 17008KT 130V200 9999 // NCD 25/08 Q1018
RF00.0/000.0=

Extra information for YPWR:More info

Metar Taf Metar & Taf Last 4 Metars F.Rules Stats Wind Profile Meteogram Temp Stats Airport Information Weather charts Add Link Nearby VenuesMetar ALERT Operation Metar Decoded Social comments